sensor_id;sensor_type;location;lat;lon;timestamp;temperature;humidity
56374;DHT22;58212;47.034;7.376;2022-07-29T00:01:57;18.70;99.90
56374;DHT22;58212;47.034;7.376;2022-07-29T00:04:24;18.70;99.90
56374;DHT22;58212;47.034;7.376;2022-07-29T00:06:51;18.70;99.90
56374;DHT22;58212;47.034;7.376;2022-07-29T00:09:18;18.80;99.90
56374;DHT22;58212;47.034;7.376;2022-07-29T00:11:45;18.70;99.90
56374;DHT22;58212;47.034;7.376;2022-07-29T00:14:12;18.70;99.90
56374;DHT22;58212;47.034;7.376;2022-07-29T00:16:40;18.70;99.90
56374;DHT22;58212;47.034;7.376;2022-07-29T00:19:07;18.70;99.90
56374;DHT22;58212;47.034;7.376;2022-07-29T00:21:34;18.80;99.90
56374;DHT22;58212;47.034;7.376;2022-07-29T00:24:04;18.70;99.90
56374;DHT22;58212;47.034;7.376;2022-07-29T00:26:31;18.70;99.90
56374;DHT22;58212;47.034;7.376;2022-07-29T00:28:59;18.70;99.90
56374;DHT22;58212;47.034;7.376;2022-07-29T00:31:26;18.80;99.90
56374;DHT22;58212;47.034;7.376;2022-07-29T00:33:55;18.80;99.90
56374;DHT22;58212;47.034;7.376;2022-07-29T00:36:22;18.80;99.90
56374;DHT22;58212;47.034;7.376;2022-07-29T00:38:49;18.70;99.90
56374;DHT22;58212;47.034;7.376;2022-07-29T00:41:18;18.70;99.90
56374;DHT22;58212;47.034;7.376;2022-07-29T00:43:45;18.60;99.90
56374;DHT22;58212;47.034;7.376;2022-07-29T00:46:14;18.60;99.90
56374;DHT22;58212;47.034;7.376;2022-07-29T00:48:41;18.60;99.90
56374;DHT22;58212;47.034;7.376;2022-07-29T00:51:10;18.60;99.90
56374;DHT22;58212;47.034;7.376;2022-07-29T00:53:38;18.50;99.90
56374;DHT22;58212;47.034;7.376;2022-07-29T00:56:05;18.60;99.90
56374;DHT22;58212;47.034;7.376;2022-07-29T00:58:32;18.70;99.90
56374;DHT22;58212;47.034;7.376;2022-07-29T01:00:59;18.60;99.90
56374;DHT22;58212;47.034;7.376;2022-07-29T01:03:26;18.60;99.90
56374;DHT22;58212;47.034;7.376;2022-07-29T01:05:54;18.60;99.90
56374;DHT22;58212;47.034;7.376;2022-07-29T01:08:23;18.50;99.90
56374;DHT22;58212;47.034;7.376;2022-07-29T01:10:51;18.40;99.90
56374;DHT22;58212;47.034;7.376;2022-07-29T01:13:21;18.50;99.90
56374;DHT22;58212;47.034;7.376;2022-07-29T01:15:56;18.50;99.90
56374;DHT22;58212;47.034;7.376;2022-07-29T01:18:30;18.60;99.90
56374;DHT22;58212;47.034;7.376;2022-07-29T01:21:27;18.60;99.90
56374;DHT22;58212;47.034;7.376;2022-07-29T01:24:25;18.70;99.90
56374;DHT22;58212;47.034;7.376;2022-07-29T01:26:58;18.70;99.90
56374;DHT22;58212;47.034;7.376;2022-07-29T01:29:30;18.70;99.90
56374;DHT22;58212;47.034;7.376;2022-07-29T01:32:02;18.70;99.90
56374;DHT22;58212;47.034;7.376;2022-07-29T01:34:37;18.60;99.90
56374;DHT22;58212;47.034;7.376;2022-07-29T01:37:12;18.60;99.90
56374;DHT22;58212;47.034;7.376;2022-07-29T01:39:42;18.50;99.90
56374;DHT22;58212;47.034;7.376;2022-07-29T01:42:14;18.60;99.90
56374;DHT22;58212;47.034;7.376;2022-07-29T01:44:48;18.60;99.90
56374;DHT22;58212;47.034;7.376;2022-07-29T01:47:20;18.70;99.90
56374;DHT22;58212;47.034;7.376;2022-07-29T01:49:51;18.70;99.90
56374;DHT22;58212;47.034;7.376;2022-07-29T01:52:23;18.70;99.90
56374;DHT22;58212;47.034;7.376;2022-07-29T01:54:55;18.70;99.90
56374;DHT22;58212;47.034;7.376;2022-07-29T01:57:27;18.70;99.90
56374;DHT22;58212;47.034;7.376;2022-07-29T01:59:57;18.70;99.90
56374;DHT22;58212;47.034;7.376;2022-07-29T02:02:28;18.70;99.90
56374;DHT22;58212;47.034;7.376;2022-07-29T02:04:57;18.70;99.90
56374;DHT22;58212;47.034;7.376;2022-07-29T02:07:28;18.80;99.90
56374;DHT22;58212;47.034;7.376;2022-07-29T02:09:57;18.70;99.90
56374;DHT22;58212;47.034;7.376;2022-07-29T02:12:25;18.70;99.90
56374;DHT22;58212;47.034;7.376;2022-07-29T02:14:56;18.60;99.90
56374;DHT22;58212;47.034;7.376;2022-07-29T02:17:28;18.60;99.90
56374;DHT22;58212;47.034;7.376;2022-07-29T02:20:00;18.80;99.90
56374;DHT22;58212;47.034;7.376;2022-07-29T02:22:30;18.90;99.90
56374;DHT22;58212;47.034;7.376;2022-07-29T02:24:58;18.70;99.90
56374;DHT22;58212;47.034;7.376;2022-07-29T02:27:26;18.70;99.90
56374;DHT22;58212;47.034;7.376;2022-07-29T02:29:56;18.70;99.90
56374;DHT22;58212;47.034;7.376;2022-07-29T02:32:26;18.80;99.90
56374;DHT22;58212;47.034;7.376;2022-07-29T02:34:55;18.80;99.90
56374;DHT22;58212;47.034;7.376;2022-07-29T02:37:23;18.70;99.90
56374;DHT22;58212;47.034;7.376;2022-07-29T02:39:52;18.70;99.90
56374;DHT22;58212;47.034;7.376;2022-07-29T02:42:22;18.90;99.90
56374;DHT22;58212;47.034;7.376;2022-07-29T02:44:50;18.70;99.90
56374;DHT22;58212;47.034;7.376;2022-07-29T02:47:23;18.70;99.90
56374;DHT22;58212;47.034;7.376;2022-07-29T02:49:55;18.60;99.90
56374;DHT22;58212;47.034;7.376;2022-07-29T02:52:27;18.30;99.90
56374;DHT22;58212;47.034;7.376;2022-07-29T02:54:58;18.20;99.90
56374;DHT22;58212;47.034;7.376;2022-07-29T02:57:31;18.20;99.90
56374;DHT22;58212;47.034;7.376;2022-07-29T03:00:03;18.10;99.90
56374;DHT22;58212;47.034;7.376;2022-07-29T03:02:37;18.10;99.90
56374;DHT22;58212;47.034;7.376;2022-07-29T03:05:10;18.10;99.90
56374;DHT22;58212;47.034;7.376;2022-07-29T03:07:40;18.10;99.90
56374;DHT22;58212;47.034;7.376;2022-07-29T03:10:10;18.20;99.90
56374;DHT22;58212;47.034;7.376;2022-07-29T03:12:37;18.20;99.90
56374;DHT22;58212;47.034;7.376;2022-07-29T03:15:06;18.20;99.90
56374;DHT22;58212;47.034;7.376;2022-07-29T03:17:35;18.30;99.90
56374;DHT22;58212;47.034;7.376;2022-07-29T03:20:04;18.40;99.90
56374;DHT22;58212;47.034;7.376;2022-07-29T03:22:31;18.20;99.90
56374;DHT22;58212;47.034;7.376;2022-07-29T03:25:07;18.10;99.90
56374;DHT22;58212;47.034;7.376;2022-07-29T03:27:34;18.10;99.90
56374;DHT22;58212;47.034;7.376;2022-07-29T03:30:02;18.20;99.90
56374;DHT22;58212;47.034;7.376;2022-07-29T03:32:29;18.30;99.90
56374;DHT22;58212;47.034;7.376;2022-07-29T03:34:57;18.30;99.90
56374;DHT22;58212;47.034;7.376;2022-07-29T03:37:24;18.30;99.90
56374;DHT22;58212;47.034;7.376;2022-07-29T03:39:52;18.30;99.90
56374;DHT22;58212;47.034;7.376;2022-07-29T03:42:23;18.30;99.90
56374;DHT22;58212;47.034;7.376;2022-07-29T03:44:52;18.30;99.90
56374;DHT22;58212;47.034;7.376;2022-07-29T03:47:23;18.20;99.90
56374;DHT22;58212;47.034;7.376;2022-07-29T03:49:54;18.00;99.90
56374;DHT22;58212;47.034;7.376;2022-07-29T03:52:24;18.00;99.90
56374;DHT22;58212;47.034;7.376;2022-07-29T03:54:51;18.00;99.90
56374;DHT22;58212;47.034;7.376;2022-07-29T03:57:20;18.10;99.90
56374;DHT22;58212;47.034;7.376;2022-07-29T03:59:51;18.00;99.90
56374;DHT22;58212;47.034;7.376;2022-07-29T04:02:19;18.20;99.90
56374;DHT22;58212;47.034;7.376;2022-07-29T04:04:46;18.10;99.90
56374;DHT22;58212;47.034;7.376;2022-07-29T04:07:15;18.00;99.90
56374;DHT22;58212;47.034;7.376;2022-07-29T04:09:43;18.10;99.90
56374;DHT22;58212;47.034;7.376;2022-07-29T04:12:10;18.10;99.90
56374;DHT22;58212;47.034;7.376;2022-07-29T04:14:37;18.00;99.90
56374;DHT22;58212;47.034;7.376;2022-07-29T04:17:05;18.00;99.90
56374;DHT22;58212;47.034;7.376;2022-07-29T04:19:32;18.00;99.90
56374;DHT22;58212;47.034;7.376;2022-07-29T04:22:00;18.10;99.90
56374;DHT22;58212;47.034;7.376;2022-07-29T04:24:27;18.10;99.90
56374;DHT22;58212;47.034;7.376;2022-07-29T04:26:56;18.20;99.90
56374;DHT22;58212;47.034;7.376;2022-07-29T04:29:23;18.10;99.90
56374;DHT22;58212;47.034;7.376;2022-07-29T04:31:50;18.10;99.90
56374;DHT22;58212;47.034;7.376;2022-07-29T04:34:17;18.00;99.90
56374;DHT22;58212;47.034;7.376;2022-07-29T04:36:44;18.00;99.90
56374;DHT22;58212;47.034;7.376;2022-07-29T04:39:11;17.90;99.90
56374;DHT22;58212;47.034;7.376;2022-07-29T04:41:38;18.00;99.90
56374;DHT22;58212;47.034;7.376;2022-07-29T04:44:06;18.00;99.90
56374;DHT22;58212;47.034;7.376;2022-07-29T04:46:34;18.10;99.90
56374;DHT22;58212;47.034;7.376;2022-07-29T04:49:02;18.10;99.90
56374;DHT22;58212;47.034;7.376;2022-07-29T04:51:29;18.10;99.90
56374;DHT22;58212;47.034;7.376;2022-07-29T04:53:56;18.00;99.90
56374;DHT22;58212;47.034;7.376;2022-07-29T04:56:23;18.00;99.90
56374;DHT22;58212;47.034;7.376;2022-07-29T04:58:52;18.10;99.90
56374;DHT22;58212;47.034;7.376;2022-07-29T05:01:21;18.10;99.90
56374;DHT22;58212;47.034;7.376;2022-07-29T05:03:50;18.10;99.90
56374;DHT22;58212;47.034;7.376;2022-07-29T05:06:20;18.10;99.90
56374;DHT22;58212;47.034;7.376;2022-07-29T05:08:47;18.00;99.90
56374;DHT22;58212;47.034;7.376;2022-07-29T05:11:14;18.00;99.90
56374;DHT22;58212;47.034;7.376;2022-07-29T05:13:41;18.00;99.90
56374;DHT22;58212;47.034;7.376;2022-07-29T05:16:08;18.20;99.90
56374;DHT22;58212;47.034;7.376;2022-07-29T05:18:37;18.30;99.90
56374;DHT22;58212;47.034;7.376;2022-07-29T05:21:04;18.20;99.90
56374;DHT22;58212;47.034;7.376;2022-07-29T05:23:31;18.10;99.90
56374;DHT22;58212;47.034;7.376;2022-07-29T05:26:00;18.10;99.90
56374;DHT22;58212;47.034;7.376;2022-07-29T05:28:27;18.20;99.90
56374;DHT22;58212;47.034;7.376;2022-07-29T05:30:54;18.10;99.90
56374;DHT22;58212;47.034;7.376;2022-07-29T05:33:21;18.00;99.90
56374;DHT22;58212;47.034;7.376;2022-07-29T05:35:50;18.00;99.90
56374;DHT22;58212;47.034;7.376;2022-07-29T05:38:17;18.10;99.90
56374;DHT22;58212;47.034;7.376;2022-07-29T05:40:44;18.10;99.90
56374;DHT22;58212;47.034;7.376;2022-07-29T05:43:11;18.10;99.90
56374;DHT22;58212;47.034;7.376;2022-07-29T05:45:38;18.10;99.90
56374;DHT22;58212;47.034;7.376;2022-07-29T05:48:05;18.00;99.90
56374;DHT22;58212;47.034;7.376;2022-07-29T05:50:32;17.90;99.90
56374;DHT22;58212;47.034;7.376;2022-07-29T05:53:01;17.90;99.90
56374;DHT22;58212;47.034;7.376;2022-07-29T05:55:29;17.90;99.90
56374;DHT22;58212;47.034;7.376;2022-07-29T05:57:56;18.00;99.90
56374;DHT22;58212;47.034;7.376;2022-07-29T06:00:23;18.00;99.90
56374;DHT22;58212;47.034;7.376;2022-07-29T06:02:50;18.20;99.90
56374;DHT22;58212;47.034;7.376;2022-07-29T06:05:18;18.20;99.90
56374;DHT22;58212;47.034;7.376;2022-07-29T06:07:45;18.30;99.90
56374;DHT22;58212;47.034;7.376;2022-07-29T06:10:13;18.40;99.90
56374;DHT22;58212;47.034;7.376;2022-07-29T06:12:43;18.60;99.90
56374;DHT22;58212;47.034;7.376;2022-07-29T06:15:12;18.60;99.90
56374;DHT22;58212;47.034;7.376;2022-07-29T06:17:39;18.60;99.90
56374;DHT22;58212;47.034;7.376;2022-07-29T06:20:07;18.60;99.90
56374;DHT22;58212;47.034;7.376;2022-07-29T06:22:34;18.50;99.90
56374;DHT22;58212;47.034;7.376;2022-07-29T06:25:01;18.60;99.90
56374;DHT22;58212;47.034;7.376;2022-07-29T06:27:30;18.60;99.90
56374;DHT22;58212;47.034;7.376;2022-07-29T06:29:57;18.50;99.90
56374;DHT22;58212;47.034;7.376;2022-07-29T06:32:24;18.40;99.90
56374;DHT22;58212;47.034;7.376;2022-07-29T06:34:51;18.40;99.90
56374;DHT22;58212;47.034;7.376;2022-07-29T06:37:18;18.50;99.90
56374;DHT22;58212;47.034;7.376;2022-07-29T06:39:45;18.60;99.90
56374;DHT22;58212;47.034;7.376;2022-07-29T06:42:13;18.70;99.90
56374;DHT22;58212;47.034;7.376;2022-07-29T06:44:42;18.90;99.90
56374;DHT22;58212;47.034;7.376;2022-07-29T06:47:09;19.00;99.90
56374;DHT22;58212;47.034;7.376;2022-07-29T06:49:36;18.90;99.90
56374;DHT22;58212;47.034;7.376;2022-07-29T06:52:04;19.00;99.90
56374;DHT22;58212;47.034;7.376;2022-07-29T06:54:31;18.90;99.90
56374;DHT22;58212;47.034;7.376;2022-07-29T06:56:59;19.00;99.90
56374;DHT22;58212;47.034;7.376;2022-07-29T06:59:26;18.90;99.90
56374;DHT22;58212;47.034;7.376;2022-07-29T07:01:55;19.10;99.90
56374;DHT22;58212;47.034;7.376;2022-07-29T07:04:22;19.10;99.90
56374;DHT22;58212;47.034;7.376;2022-07-29T07:06:50;19.10;99.90
56374;DHT22;58212;47.034;7.376;2022-07-29T07:09:17;18.90;99.90
56374;DHT22;58212;47.034;7.376;2022-07-29T07:11:47;19.10;99.90
56374;DHT22;58212;47.034;7.376;2022-07-29T07:14:15;19.50;99.90
56374;DHT22;58212;47.034;7.376;2022-07-29T07:16:42;19.50;99.90
56374;DHT22;58212;47.034;7.376;2022-07-29T07:19:10;19.40;99.90
56374;DHT22;58212;47.034;7.376;2022-07-29T07:21:39;19.40;99.90
56374;DHT22;58212;47.034;7.376;2022-07-29T07:24:06;19.50;99.90
56374;DHT22;58212;47.034;7.376;2022-07-29T07:26:33;19.40;99.90
56374;DHT22;58212;47.034;7.376;2022-07-29T07:29:00;19.30;99.90
56374;DHT22;58212;47.034;7.376;2022-07-29T07:31:27;19.30;99.90
56374;DHT22;58212;47.034;7.376;2022-07-29T07:33:54;19.20;99.90
56374;DHT22;58212;47.034;7.376;2022-07-29T07:36:23;19.10;99.90
56374;DHT22;58212;47.034;7.376;2022-07-29T07:38:50;19.20;99.90
56374;DHT22;58212;47.034;7.376;2022-07-29T07:41:17;19.20;99.90
56374;DHT22;58212;47.034;7.376;2022-07-29T07:43:44;19.20;99.90
56374;DHT22;58212;47.034;7.376;2022-07-29T07:46:11;19.20;99.90
56374;DHT22;58212;47.034;7.376;2022-07-29T07:48:38;19.20;99.90
56374;DHT22;58212;47.034;7.376;2022-07-29T07:51:05;19.30;99.90
56374;DHT22;58212;47.034;7.376;2022-07-29T07:53:36;19.70;99.90
56374;DHT22;58212;47.034;7.376;2022-07-29T07:56:03;19.90;99.90
56374;DHT22;58212;47.034;7.376;2022-07-29T07:58:32;20.10;99.90
56374;DHT22;58212;47.034;7.376;2022-07-29T08:01:02;20.70;99.90
56374;DHT22;58212;47.034;7.376;2022-07-29T08:03:29;20.80;99.90
56374;DHT22;58212;47.034;7.376;2022-07-29T08:05:59;21.00;99.90
56374;DHT22;58212;47.034;7.376;2022-07-29T08:08:28;21.00;99.90
56374;DHT22;58212;47.034;7.376;2022-07-29T08:10:57;21.30;99.90
56374;DHT22;58212;47.034;7.376;2022-07-29T08:13:26;21.60;99.90
56374;DHT22;58212;47.034;7.376;2022-07-29T08:15:56;21.30;99.90
56374;DHT22;58212;47.034;7.376;2022-07-29T08:18:29;21.20;99.90
56374;DHT22;58212;47.034;7.376;2022-07-29T08:20:58;21.30;99.90
56374;DHT22;58212;47.034;7.376;2022-07-29T08:23:25;21.10;99.90
56374;DHT22;58212;47.034;7.376;2022-07-29T08:26:01;21.10;99.90
56374;DHT22;58212;47.034;7.376;2022-07-29T08:28:29;21.30;99.90
56374;DHT22;58212;47.034;7.376;2022-07-29T08:30:56;21.60;99.90
56374;DHT22;58212;47.034;7.376;2022-07-29T08:33:22;22.10;99.90
56374;DHT22;58212;47.034;7.376;2022-07-29T08:35:49;21.90;99.90
56374;DHT22;58212;47.034;7.376;2022-07-29T08:38:16;22.10;99.90
56374;DHT22;58212;47.034;7.376;2022-07-29T08:40:44;22.50;99.90
56374;DHT22;58212;47.034;7.376;2022-07-29T08:43:13;22.70;99.90
56374;DHT22;58212;47.034;7.376;2022-07-29T08:45:42;22.80;99.90
56374;DHT22;58212;47.034;7.376;2022-07-29T08:48:11;22.60;99.90
56374;DHT22;58212;47.034;7.376;2022-07-29T08:50:39;22.50;99.90
56374;DHT22;58212;47.034;7.376;2022-07-29T08:53:07;22.30;99.90
56374;DHT22;58212;47.034;7.376;2022-07-29T08:55:39;22.20;99.90
56374;DHT22;58212;47.034;7.376;2022-07-29T08:58:07;22.20;99.90
56374;DHT22;58212;47.034;7.376;2022-07-29T09:00:37;22.30;99.90
56374;DHT22;58212;47.034;7.376;2022-07-29T09:03:04;22.60;99.90
56374;DHT22;58212;47.034;7.376;2022-07-29T09:05:34;22.70;99.90
56374;DHT22;58212;47.034;7.376;2022-07-29T09:08:03;22.80;99.90
56374;DHT22;58212;47.034;7.376;2022-07-29T09:10:31;22.60;99.90
56374;DHT22;58212;47.034;7.376;2022-07-29T09:13:01;22.70;99.90
56374;DHT22;58212;47.034;7.376;2022-07-29T09:15:28;22.60;99.90
56374;DHT22;58212;47.034;7.376;2022-07-29T09:17:57;22.80;99.90
56374;DHT22;58212;47.034;7.376;2022-07-29T09:20:26;22.90;99.90
56374;DHT22;58212;47.034;7.376;2022-07-29T09:23:15;22.80;99.90
56374;DHT22;58212;47.034;7.376;2022-07-29T09:25:42;23.10;99.90
56374;DHT22;58212;47.034;7.376;2022-07-29T09:28:11;23.00;99.90
56374;DHT22;58212;47.034;7.376;2022-07-29T09:30:50;23.00;99.90
56374;DHT22;58212;47.034;7.376;2022-07-29T09:33:19;22.70;99.90
56374;DHT22;58212;47.034;7.376;2022-07-29T09:35:58;22.80;99.90
56374;DHT22;58212;47.034;7.376;2022-07-29T09:38:26;22.80;99.90
56374;DHT22;58212;47.034;7.376;2022-07-29T09:40:56;22.70;99.90
56374;DHT22;58212;47.034;7.376;2022-07-29T09:43:24;22.60;99.90
56374;DHT22;58212;47.034;7.376;2022-07-29T09:45:51;22.70;99.90
56374;DHT22;58212;47.034;7.376;2022-07-29T09:48:21;22.60;99.90
56374;DHT22;58212;47.034;7.376;2022-07-29T09:50:48;22.60;99.90
56374;DHT22;58212;47.034;7.376;2022-07-29T09:53:30;22.60;99.90
56374;DHT22;58212;47.034;7.376;2022-07-29T09:55:57;22.80;99.90
56374;DHT22;58212;47.034;7.376;2022-07-29T09:58:25;22.90;99.90
56374;DHT22;58212;47.034;7.376;2022-07-29T10:00:53;23.00;99.90
56374;DHT22;58212;47.034;7.376;2022-07-29T10:03:24;22.90;99.90
56374;DHT22;58212;47.034;7.376;2022-07-29T10:06:07;22.90;99.90
56374;DHT22;58212;47.034;7.376;2022-07-29T10:08:35;22.90;99.90
56374;DHT22;58212;47.034;7.376;2022-07-29T10:11:12;23.20;99.90
56374;DHT22;58212;47.034;7.376;2022-07-29T10:13:40;23.30;99.90
56374;DHT22;58212;47.034;7.376;2022-07-29T10:16:08;23.20;99.90
56374;DHT22;58212;47.034;7.376;2022-07-29T10:18:38;23.00;99.90
56374;DHT22;58212;47.034;7.376;2022-07-29T10:21:05;23.10;99.90
56374;DHT22;58212;47.034;7.376;2022-07-29T10:23:34;23.20;99.90
56374;DHT22;58212;47.034;7.376;2022-07-29T10:26:03;23.30;99.90
56374;DHT22;58212;47.034;7.376;2022-07-29T10:28:31;23.40;99.90
56374;DHT22;58212;47.034;7.376;2022-07-29T10:31:01;23.50;99.90
56374;DHT22;58212;47.034;7.376;2022-07-29T10:33:41;23.70;99.90
56374;DHT22;58212;47.034;7.376;2022-07-29T10:36:24;23.40;99.90
56374;DHT22;58212;47.034;7.376;2022-07-29T10:39:00;22.90;99.90
56374;DHT22;58212;47.034;7.376;2022-07-29T10:42:00;23.20;99.90
56374;DHT22;58212;47.034;7.376;2022-07-29T10:44:29;23.20;99.90
56374;DHT22;58212;47.034;7.376;2022-07-29T10:46:56;23.20;99.90
56374;DHT22;58212;47.034;7.376;2022-07-29T10:49:25;23.00;99.90
56374;DHT22;58212;47.034;7.376;2022-07-29T10:52:04;23.30;99.90
56374;DHT22;58212;47.034;7.376;2022-07-29T10:54:47;23.20;99.90
56374;DHT22;58212;47.034;7.376;2022-07-29T10:57:27;23.20;99.90
56374;DHT22;58212;47.034;7.376;2022-07-29T11:00:26;23.10;99.90
56374;DHT22;58212;47.034;7.376;2022-07-29T11:02:54;23.20;99.90
56374;DHT22;58212;47.034;7.376;2022-07-29T11:05:55;23.40;99.90
56374;DHT22;58212;47.034;7.376;2022-07-29T11:08:24;23.30;99.90
56374;DHT22;58212;47.034;7.376;2022-07-29T11:10:53;23.30;99.90
56374;DHT22;58212;47.034;7.376;2022-07-29T11:13:46;23.50;99.90
56374;DHT22;58212;47.034;7.376;2022-07-29T11:16:13;23.50;99.90
56374;DHT22;58212;47.034;7.376;2022-07-29T11:21:46;23.60;99.90
56374;DHT22;58212;47.034;7.376;2022-07-29T11:24:16;23.70;99.90
56374;DHT22;58212;47.034;7.376;2022-07-29T11:26:43;24.00;99.90
56374;DHT22;58212;47.034;7.376;2022-07-29T11:29:19;23.90;99.90
56374;DHT22;58212;47.034;7.376;2022-07-29T11:31:49;23.60;99.90
56374;DHT22;58212;47.034;7.376;2022-07-29T11:34:22;23.30;99.90
56374;DHT22;58212;47.034;7.376;2022-07-29T11:37:22;23.30;99.90
56374;DHT22;58212;47.034;7.376;2022-07-29T11:40:08;23.40;99.90
56374;DHT22;58212;47.034;7.376;2022-07-29T11:42:43;23.30;99.90
56374;DHT22;58212;47.034;7.376;2022-07-29T11:45:13;23.60;99.90
56374;DHT22;58212;47.034;7.376;2022-07-29T11:47:41;23.70;99.90
56374;DHT22;58212;47.034;7.376;2022-07-29T11:50:14;23.70;99.90
56374;DHT22;58212;47.034;7.376;2022-07-29T11:52:44;23.50;99.90
56374;DHT22;58212;47.034;7.376;2022-07-29T11:55:13;23.50;99.90
56374;DHT22;58212;47.034;7.376;2022-07-29T11:57:48;23.40;99.90
56374;DHT22;58212;47.034;7.376;2022-07-29T12:00:27;23.50;99.90
56374;DHT22;58212;47.034;7.376;2022-07-29T12:02:55;23.20;99.90
56374;DHT22;58212;47.034;7.376;2022-07-29T12:05:35;23.10;99.90
56374;DHT22;58212;47.034;7.376;2022-07-29T12:08:10;23.00;99.90
56374;DHT22;58212;47.034;7.376;2022-07-29T12:10:38;23.00;99.90
56374;DHT22;58212;47.034;7.376;2022-07-29T12:13:05;23.20;99.90
56374;DHT22;58212;47.034;7.376;2022-07-29T12:15:33;23.20;99.90
56374;DHT22;58212;47.034;7.376;2022-07-29T12:18:10;23.10;99.90
56374;DHT22;58212;47.034;7.376;2022-07-29T12:20:37;23.10;99.90
56374;DHT22;58212;47.034;7.376;2022-07-29T12:23:09;22.70;99.90
56374;DHT22;58212;47.034;7.376;2022-07-29T12:25:38;22.50;99.90
56374;DHT22;58212;47.034;7.376;2022-07-29T12:28:07;22.50;99.90
56374;DHT22;58212;47.034;7.376;2022-07-29T12:30:43;22.80;99.90
56374;DHT22;58212;47.034;7.376;2022-07-29T12:33:12;22.50;99.90
56374;DHT22;58212;47.034;7.376;2022-07-29T12:35:40;22.30;99.90
56374;DHT22;58212;47.034;7.376;2022-07-29T12:38:11;22.20;99.90
56374;DHT22;58212;47.034;7.376;2022-07-29T12:40:39;22.10;99.90
56374;DHT22;58212;47.034;7.376;2022-07-29T12:43:11;22.10;99.90
56374;DHT22;58212;47.034;7.376;2022-07-29T12:45:42;22.00;99.90
56374;DHT22;58212;47.034;7.376;2022-07-29T12:48:10;21.80;99.90
56374;DHT22;58212;47.034;7.376;2022-07-29T12:50:56;21.50;99.90
56374;DHT22;58212;47.034;7.376;2022-07-29T12:53:30;21.10;99.90
56374;DHT22;58212;47.034;7.376;2022-07-29T12:55:59;21.10;99.90
56374;DHT22;58212;47.034;7.376;2022-07-29T12:58:33;21.00;99.90
56374;DHT22;58212;47.034;7.376;2022-07-29T13:01:06;21.30;99.90
56374;DHT22;58212;47.034;7.376;2022-07-29T13:03:50;21.20;99.90
56374;DHT22;58212;47.034;7.376;2022-07-29T13:06:31;20.80;99.90
56374;DHT22;58212;47.034;7.376;2022-07-29T13:09:04;20.40;99.90
56374;DHT22;58212;47.034;7.376;2022-07-29T13:11:32;20.40;99.90
56374;DHT22;58212;47.034;7.376;2022-07-29T13:13:59;20.40;99.90
56374;DHT22;58212;47.034;7.376;2022-07-29T13:16:26;20.30;99.90
56374;DHT22;58212;47.034;7.376;2022-07-29T13:19:08;20.50;99.90
56374;DHT22;58212;47.034;7.376;2022-07-29T13:21:36;20.40;99.90
56374;DHT22;58212;47.034;7.376;2022-07-29T13:24:07;20.10;99.90
56374;DHT22;58212;47.034;7.376;2022-07-29T13:26:39;19.90;99.90
56374;DHT22;58212;47.034;7.376;2022-07-29T13:29:06;20.00;99.90
56374;DHT22;58212;47.034;7.376;2022-07-29T13:31:34;20.20;99.90
56374;DHT22;58212;47.034;7.376;2022-07-29T13:34:01;20.30;99.90
56374;DHT22;58212;47.034;7.376;2022-07-29T13:36:28;20.40;99.90
56374;DHT22;58212;47.034;7.376;2022-07-29T13:38:56;20.30;99.90
56374;DHT22;58212;47.034;7.376;2022-07-29T13:41:25;20.30;99.90
56374;DHT22;58212;47.034;7.376;2022-07-29T13:43:55;20.20;99.90
56374;DHT22;58212;47.034;7.376;2022-07-29T13:46:22;20.20;99.90
56374;DHT22;58212;47.034;7.376;2022-07-29T13:48:49;20.10;99.90
56374;DHT22;58212;47.034;7.376;2022-07-29T13:51:18;20.00;99.90
56374;DHT22;58212;47.034;7.376;2022-07-29T13:53:47;20.00;99.90
56374;DHT22;58212;47.034;7.376;2022-07-29T13:56:15;19.90;99.90
56374;DHT22;58212;47.034;7.376;2022-07-29T13:58:43;20.00;99.90
56374;DHT22;58212;47.034;7.376;2022-07-29T14:01:10;19.70;99.90
56374;DHT22;58212;47.034;7.376;2022-07-29T14:03:38;19.70;99.90
56374;DHT22;58212;47.034;7.376;2022-07-29T14:06:07;19.90;99.90
56374;DHT22;58212;47.034;7.376;2022-07-29T14:08:36;20.10;99.90
56374;DHT22;58212;47.034;7.376;2022-07-29T14:11:05;20.00;99.90
56374;DHT22;58212;47.034;7.376;2022-07-29T14:13:32;20.00;99.90
56374;DHT22;58212;47.034;7.376;2022-07-29T14:16:00;20.20;99.90
56374;DHT22;58212;47.034;7.376;2022-07-29T14:18:28;20.20;99.90
56374;DHT22;58212;47.034;7.376;2022-07-29T14:20:55;20.50;99.90
56374;DHT22;58212;47.034;7.376;2022-07-29T14:23:22;20.20;99.90
56374;DHT22;58212;47.034;7.376;2022-07-29T14:25:50;20.30;99.90
56374;DHT22;58212;47.034;7.376;2022-07-29T14:28:17;20.30;99.90
56374;DHT22;58212;47.034;7.376;2022-07-29T14:30:44;20.50;99.90
56374;DHT22;58212;47.034;7.376;2022-07-29T14:33:12;20.60;99.90
56374;DHT22;58212;47.034;7.376;2022-07-29T14:35:40;20.60;99.90
56374;DHT22;58212;47.034;7.376;2022-07-29T14:38:07;20.60;99.90
56374;DHT22;58212;47.034;7.376;2022-07-29T14:40:34;20.70;99.90
56374;DHT22;58212;47.034;7.376;2022-07-29T14:43:02;21.10;99.90
56374;DHT22;58212;47.034;7.376;2022-07-29T14:45:29;20.90;99.90
56374;DHT22;58212;47.034;7.376;2022-07-29T14:47:57;21.10;99.90
56374;DHT22;58212;47.034;7.376;2022-07-29T14:50:28;21.30;99.90
56374;DHT22;58212;47.034;7.376;2022-07-29T14:52:55;21.20;99.90
56374;DHT22;58212;47.034;7.376;2022-07-29T14:55:22;21.30;99.90
56374;DHT22;58212;47.034;7.376;2022-07-29T14:57:49;21.40;99.90
56374;DHT22;58212;47.034;7.376;2022-07-29T15:00:17;21.40;99.90
56374;DHT22;58212;47.034;7.376;2022-07-29T15:02:44;21.20;99.90
56374;DHT22;58212;47.034;7.376;2022-07-29T15:05:11;21.20;99.90
56374;DHT22;58212;47.034;7.376;2022-07-29T15:07:39;21.40;99.90
56374;DHT22;58212;47.034;7.376;2022-07-29T15:10:06;21.40;99.90
56374;DHT22;58212;47.034;7.376;2022-07-29T15:12:33;21.20;99.90
56374;DHT22;58212;47.034;7.376;2022-07-29T15:15:03;21.50;99.90
56374;DHT22;58212;47.034;7.376;2022-07-29T15:17:33;21.40;99.90
56374;DHT22;58212;47.034;7.376;2022-07-29T15:20:00;21.10;99.90
56374;DHT22;58212;47.034;7.376;2022-07-29T15:22:27;21.30;99.90
56374;DHT22;58212;47.034;7.376;2022-07-29T15:24:55;21.70;99.90
56374;DHT22;58212;47.034;7.376;2022-07-29T15:27:22;22.20;99.90
56374;DHT22;58212;47.034;7.376;2022-07-29T15:29:49;22.40;99.90
56374;DHT22;58212;47.034;7.376;2022-07-29T15:32:16;22.60;99.90
56374;DHT22;58212;47.034;7.376;2022-07-29T15:34:43;22.50;99.90
56374;DHT22;58212;47.034;7.376;2022-07-29T15:37:10;22.80;99.90
56374;DHT22;58212;47.034;7.376;2022-07-29T15:39:37;22.90;99.90
56374;DHT22;58212;47.034;7.376;2022-07-29T15:42:06;22.90;99.90
56374;DHT22;58212;47.034;7.376;2022-07-29T15:44:33;22.80;99.90
56374;DHT22;58212;47.034;7.376;2022-07-29T15:47:00;22.80;99.90
56374;DHT22;58212;47.034;7.376;2022-07-29T15:49:32;23.00;99.90